createdAt,value
2022-10-26T00:00:52.779Z,2.78
2022-10-26T00:03:19.887Z,2.35
2022-10-26T00:05:47.258Z,2.90
2022-10-26T00:08:14.994Z,3.20
2022-10-26T00:10:42.456Z,3.00
2022-10-26T00:13:11.793Z,2.72
2022-10-26T00:15:43.002Z,2.63
2022-10-26T00:18:10.402Z,3.03
2022-10-26T00:20:37.827Z,2.40
2022-10-26T00:23:05.079Z,2.90
2022-10-26T00:25:32.245Z,3.10
2022-10-26T00:27:59.484Z,2.72
2022-10-26T00:30:26.792Z,2.60
2022-10-26T00:32:54.079Z,2.90
2022-10-26T00:35:41.125Z,2.73
2022-10-26T00:38:11.098Z,3.05
2022-10-26T00:40:38.220Z,3.40
2022-10-26T00:43:10.588Z,3.17
2022-10-26T00:45:37.756Z,2.50
2022-10-26T00:48:07.664Z,2.63
2022-10-26T00:50:37.498Z,3.03
2022-10-26T00:53:06.627Z,2.90
2022-10-26T00:55:47.434Z,2.50
2022-10-26T00:58:14.713Z,3.00
2022-10-26T01:00:42.973Z,2.47
2022-10-26T01:03:10.977Z,2.50
2022-10-26T01:05:41.732Z,2.70
2022-10-26T01:08:09.597Z,2.92
2022-10-26T01:10:38.382Z,2.80
2022-10-26T01:13:05.802Z,2.80
2022-10-26T01:15:47.332Z,2.33
2022-10-26T01:18:38.144Z,2.27
2022-10-26T01:21:23.768Z,2.35
2022-10-26T01:24:08.385Z,2.50
2022-10-26T01:26:54.996Z,2.20
2022-10-26T01:29:49.422Z,2.10
2022-10-26T01:32:51.917Z,2.70
2022-10-26T01:35:25.348Z,2.50
2022-10-26T01:38:31.730Z,2.88
2022-10-26T01:41:20.187Z,2.53
2022-10-26T01:43:53.167Z,2.58
2022-10-26T01:46:22.130Z,2.33
2022-10-26T01:48:52.383Z,2.70
2022-10-26T01:51:20.391Z,2.17
2022-10-26T01:53:47.454Z,2.10
2022-10-26T01:56:20.318Z,2.50
2022-10-26T01:59:29.475Z,2.17
2022-10-26T02:02:24.452Z,2.15
2022-10-26T02:05:04.701Z,2.00
2022-10-26T02:07:37.031Z,2.60
2022-10-26T02:10:06.664Z,2.20
2022-10-26T02:12:39.065Z,2.27
2022-10-26T02:15:09.815Z,2.38
2022-10-26T02:17:49.400Z,2.30
2022-10-26T02:20:32.458Z,2.10
2022-10-26T02:23:01.998Z,2.60
2022-10-26T02:25:33.309Z,2.83
2022-10-26T02:28:04.444Z,2.40
2022-10-26T02:30:33.438Z,2.38
2022-10-26T02:33:01.614Z,2.28
2022-10-26T02:35:31.434Z,2.75
2022-10-26T02:38:00.891Z,2.07
2022-10-26T02:40:29.311Z,2.30
2022-10-26T02:42:59.937Z,2.20
2022-10-26T02:45:31.618Z,2.05
2022-10-26T02:47:58.803Z,2.20
2022-10-26T02:50:33.860Z,1.80
2022-10-26T02:53:26.971Z,1.95
2022-10-26T02:55:54.780Z,2.42
2022-10-26T02:58:28.575Z,1.85
2022-10-26T03:00:55.769Z,1.70
2022-10-26T03:03:23.197Z,2.50
2022-10-26T03:05:50.303Z,1.88
2022-10-26T03:08:17.428Z,1.38
2022-10-26T03:10:45.445Z,1.83
2022-10-26T03:13:13.693Z,1.50
2022-10-26T03:15:41.063Z,1.73
2022-10-26T03:18:08.246Z,3.22
2022-10-26T03:20:35.536Z,1.88
2022-10-26T03:23:02.597Z,2.00
2022-10-26T03:25:29.662Z,2.25
2022-10-26T03:28:01.001Z,1.70
2022-10-26T03:30:28.883Z,1.48
2022-10-26T03:32:56.463Z,1.80
2022-10-26T03:35:23.862Z,1.70
2022-10-26T03:37:51.546Z,2.03
2022-10-26T03:40:18.888Z,1.73
2022-10-26T03:42:46.057Z,1.80
2022-10-26T03:45:13.371Z,2.00
2022-10-26T03:47:43.822Z,1.63
2022-10-26T03:50:12.454Z,1.92
2022-10-26T03:52:40.233Z,2.00
2022-10-26T03:55:07.965Z,1.60
2022-10-26T03:57:35.072Z,2.45
2022-10-26T04:00:02.240Z,2.25
2022-10-26T04:02:29.265Z,2.38
2022-10-26T04:04:56.332Z,1.97
2022-10-26T04:07:23.419Z,2.40
2022-10-26T04:09:50.481Z,2.33
2022-10-26T04:12:17.599Z,2.67
2022-10-26T04:14:44.635Z,2.35
2022-10-26T04:17:11.700Z,2.80
2022-10-26T04:19:38.715Z,2.55
2022-10-26T04:22:05.804Z,2.70
2022-10-26T04:24:32.887Z,2.53
2022-10-26T04:26:59.953Z,2.25
2022-10-26T04:29:27.044Z,2.60
2022-10-26T04:31:54.105Z,2.28
2022-10-26T04:34:21.186Z,2.10
2022-10-26T04:36:48.277Z,2.65
2022-10-26T04:39:15.352Z,1.98
2022-10-26T04:41:42.439Z,1.90
2022-10-26T04:44:09.484Z,2.42
2022-10-26T04:46:36.569Z,2.28
2022-10-26T04:49:03.793Z,2.30
2022-10-26T04:51:30.892Z,2.13
2022-10-26T04:53:58.258Z,2.20
2022-10-26T04:56:25.346Z,2.30
2022-10-26T04:58:55.328Z,2.40
2022-10-26T05:01:22.532Z,2.38
2022-10-26T05:03:51.218Z,2.10
2022-10-26T05:06:18.470Z,2.10
2022-10-26T05:08:45.580Z,2.15
2022-10-26T05:11:12.703Z,2.60
2022-10-26T05:13:40.132Z,2.13
2022-10-26T05:16:07.591Z,2.15
2022-10-26T05:18:34.650Z,2.30
2022-10-26T05:21:01.774Z,2.40
2022-10-26T05:23:28.828Z,2.08
2022-10-26T05:25:56.878Z,2.22
2022-10-26T05:28:24.043Z,2.58
2022-10-26T05:30:51.116Z,2.87
2022-10-26T05:33:18.221Z,2.30
2022-10-26T05:35:45.393Z,2.30
2022-10-26T05:38:16.865Z,2.35
2022-10-26T05:40:48.746Z,2.15
2022-10-26T05:43:15.917Z,2.50
2022-10-26T05:45:43.009Z,2.65
2022-10-26T05:48:10.046Z,2.55
2022-10-26T05:50:37.309Z,2.72
2022-10-26T05:53:04.477Z,2.70
2022-10-26T05:55:31.915Z,2.70
2022-10-26T05:57:59.405Z,2.42
2022-10-26T06:00:29.901Z,2.40
2022-10-26T06:03:18.433Z,3.08
2022-10-26T06:05:53.322Z,2.80
2022-10-26T06:08:22.170Z,2.90
2022-10-26T06:10:49.907Z,2.85
2022-10-26T06:13:17.483Z,3.15
2022-10-26T06:16:11.078Z,3.08
2022-10-26T06:18:58.239Z,3.25
2022-10-26T06:21:49.669Z,3.50
2022-10-26T06:24:29.485Z,3.03
2022-10-26T06:26:59.267Z,3.17
2022-10-26T06:29:44.116Z,2.95
2022-10-26T06:32:11.254Z,3.05
2022-10-26T06:34:44.122Z,3.60
2022-10-26T06:37:11.326Z,3.83
2022-10-26T06:39:42.392Z,3.35
2022-10-26T06:42:10.899Z,3.40
2022-10-26T06:44:38.425Z,3.20
2022-10-26T06:47:26.997Z,3.43
2022-10-26T06:50:05.390Z,3.08
2022-10-26T06:52:44.740Z,3.20
2022-10-26T06:55:16.295Z,3.00
2022-10-26T06:57:44.358Z,3.15
2022-10-26T07:00:22.687Z,3.40
2022-10-26T07:02:50.279Z,2.63
2022-10-26T07:05:17.976Z,3.03
2022-10-26T07:07:46.662Z,2.90
2022-10-26T07:10:14.897Z,3.20
2022-10-26T07:12:41.973Z,3.03
2022-10-26T07:17:45.855Z,3.75
2022-10-26T07:20:13.560Z,3.10
2022-10-26T07:22:40.761Z,2.85
2022-10-26T07:25:08.348Z,3.20
2022-10-26T07:27:35.735Z,3.25
2022-10-26T07:30:02.888Z,4.28
2022-10-26T07:32:30.418Z,3.50
2022-10-26T07:34:57.475Z,4.03
2022-10-26T07:37:24.520Z,3.60
2022-10-26T07:39:51.586Z,3.70
2022-10-26T07:42:19.048Z,3.35
2022-10-26T07:44:46.337Z,3.65
2022-10-26T07:47:13.397Z,3.45
2022-10-26T07:49:40.584Z,4.43
2022-10-26T07:52:07.665Z,3.70
2022-10-26T07:54:34.780Z,3.47
2022-10-26T07:57:02.190Z,3.30
2022-10-26T07:59:29.453Z,3.08
2022-10-26T08:01:56.578Z,3.20
2022-10-26T08:04:23.659Z,3.28
2022-10-26T08:06:50.792Z,3.70
2022-10-26T08:09:17.896Z,2.80
2022-10-26T08:11:45.030Z,2.95
2022-10-26T08:14:12.149Z,3.23
2022-10-26T08:16:40.545Z,3.30
2022-10-26T08:19:07.746Z,3.20
2022-10-26T08:21:39.564Z,3.20
2022-10-26T08:24:07.826Z,2.90
2022-10-26T08:26:34.902Z,3.27
2022-10-26T08:29:02.069Z,2.88
2022-10-26T08:31:29.151Z,3.42
2022-10-26T08:33:56.204Z,3.45
2022-10-26T08:36:24.671Z,2.72
2022-10-26T08:38:52.679Z,3.07
2022-10-26T08:41:44.080Z,3.03
2022-10-26T08:44:16.928Z,3.17
2022-10-26T08:46:47.211Z,2.00
2022-10-26T08:49:21.101Z,1.83
2022-10-26T08:51:50.990Z,2.33
2022-10-26T08:54:38.114Z,1.92
2022-10-26T08:57:11.921Z,1.23
2022-10-26T08:59:49.490Z,1.02
2022-10-26T09:02:18.048Z,0.98
2022-10-26T09:04:45.365Z,0.57
2022-10-26T09:07:21.850Z,0.80
2022-10-26T09:10:05.492Z,0.70
2022-10-26T09:12:41.540Z,0.65
2022-10-26T09:15:08.489Z,0.60
2022-10-26T09:18:13.533Z,0.60
2022-10-26T09:20:51.108Z,0.45
2022-10-26T09:23:30.026Z,0.77
2022-10-26T09:26:02.055Z,0.70
2022-10-26T09:28:33.667Z,0.40
2022-10-26T09:31:02.306Z,0.73
2022-10-26T09:33:31.453Z,0.68
2022-10-26T09:36:04.155Z,0.50
2022-10-26T09:39:01.498Z,0.70
2022-10-26T09:41:39.337Z,0.95
2022-10-26T09:44:26.117Z,1.53
2022-10-26T09:46:58.669Z,0.43
2022-10-26T09:49:34.750Z,1.25
2022-10-26T09:52:01.859Z,0.70
2022-10-26T09:54:29.080Z,0.70
2022-10-26T09:56:59.329Z,0.70
2022-10-26T09:59:26.676Z,0.70
2022-10-26T10:01:53.994Z,0.30
2022-10-26T10:04:28.364Z,0.70
2022-10-26T10:07:01.212Z,0.52
2022-10-26T10:09:28.253Z,0.53
2022-10-26T10:12:03.735Z,0.50
2022-10-26T10:14:42.928Z,0.50
2022-10-26T10:17:20.650Z,0.57
2022-10-26T10:19:47.789Z,1.00
2022-10-26T10:22:14.741Z,0.73
2022-10-26T10:24:43.321Z,0.85
2022-10-26T10:27:13.297Z,0.70
2022-10-26T10:29:45.527Z,0.63
2022-10-26T10:32:34.061Z,0.47
2022-10-26T10:35:22.969Z,0.87
2022-10-26T10:37:50.925Z,0.45
2022-10-26T10:40:20.413Z,0.47
2022-10-26T10:42:48.557Z,0.50
2022-10-26T10:45:21.482Z,0.47
2022-10-26T10:48:21.613Z,0.47
2022-10-26T10:50:57.716Z,0.60
2022-10-26T10:53:30.557Z,0.95
2022-10-26T10:56:22.205Z,1.05
2022-10-26T10:59:03.991Z,1.00
2022-10-26T11:01:35.579Z,0.83
2022-10-26T11:04:21.045Z,0.90
2022-10-26T11:06:48.614Z,3.45
2022-10-26T11:09:19.953Z,1.50
2022-10-26T11:12:00.580Z,0.60
2022-10-26T11:14:33.255Z,0.80
2022-10-26T11:17:14.351Z,1.20
2022-10-26T11:19:45.438Z,0.70
2022-10-26T11:22:19.016Z,0.55
2022-10-26T11:24:50.397Z,0.80
2022-10-26T11:27:20.675Z,1.07
2022-10-26T11:29:54.471Z,0.70
2022-10-26T11:32:21.527Z,0.55
2022-10-26T11:35:14.015Z,0.80
2022-10-26T11:37:55.306Z,0.68
2022-10-26T11:40:49.924Z,0.60
2022-10-26T11:43:28.121Z,0.88
2022-10-26T11:46:18.940Z,0.68
2022-10-26T11:48:55.167Z,0.50
2022-10-26T11:52:00.943Z,0.95
2022-10-26T11:54:35.200Z,1.30
2022-10-26T11:57:03.965Z,1.60
2022-10-26T11:59:33.851Z,1.48
2022-10-26T12:02:40.594Z,1.85
2022-10-26T12:05:19.040Z,2.25
2022-10-26T12:07:53.542Z,2.20
2022-10-26T12:10:27.551Z,2.30
2022-10-26T12:13:13.221Z,2.33
2022-10-26T12:16:02.257Z,2.75
2022-10-26T12:18:56.622Z,2.25
2022-10-26T12:21:31.767Z,2.37
2022-10-26T12:24:23.023Z,1.55
2022-10-26T12:26:55.102Z,1.55
2022-10-26T12:29:26.951Z,1.55
2022-10-26T12:31:54.034Z,1.45
2022-10-26T12:34:30.815Z,1.20
2022-10-26T12:36:57.773Z,1.00
2022-10-26T12:39:40.867Z,1.08
2022-10-26T12:42:07.811Z,1.10
2022-10-26T12:44:37.905Z,1.20
2022-10-26T12:47:05.598Z,0.80
2022-10-26T12:50:07.014Z,0.70
2022-10-26T12:52:40.501Z,1.10
2022-10-26T12:55:07.487Z,0.68
2022-10-26T12:57:46.849Z,0.80
2022-10-26T13:00:17.432Z,0.70
2022-10-26T13:03:09.796Z,0.45
2022-10-26T13:06:07.165Z,0.63
2022-10-26T13:08:49.272Z,0.47
2022-10-26T13:11:21.391Z,0.70
2022-10-26T13:13:55.744Z,0.70
2022-10-26T13:16:24.505Z,0.65
2022-10-26T13:18:51.612Z,0.40
2022-10-26T13:21:20.812Z,0.50
2022-10-26T13:24:01.737Z,0.60
2022-10-26T13:26:30.315Z,0.40
2022-10-26T13:29:00.187Z,0.47
2022-10-26T13:31:31.389Z,0.85
2022-10-26T13:34:04.276Z,0.95
2022-10-26T13:36:37.330Z,1.20
2022-10-26T13:39:10.606Z,0.80
2022-10-26T13:41:39.721Z,0.90
2022-10-26T13:44:17.436Z,1.05
2022-10-26T13:46:46.709Z,1.38
2022-10-26T13:49:19.248Z,1.20
2022-10-26T13:51:49.413Z,1.47
2022-10-26T13:54:35.165Z,1.45
2022-10-26T13:57:07.874Z,1.58
2022-10-26T13:59:38.989Z,1.42
2022-10-26T14:02:25.948Z,1.20
2022-10-26T14:04:59.091Z,1.30
2022-10-26T14:07:34.686Z,1.63
2022-10-26T14:10:01.934Z,1.15
2022-10-26T14:12:29.329Z,1.10
2022-10-26T14:15:03.389Z,1.00
2022-10-26T14:17:30.607Z,1.23
2022-10-26T14:19:57.793Z,2.28
2022-10-26T14:22:30.110Z,0.82
2022-10-26T14:24:58.908Z,1.10
2022-10-26T14:27:39.598Z,0.82
2022-10-26T14:30:30.601Z,0.90
2022-10-26T14:32:58.440Z,1.10
2022-10-26T14:35:32.907Z,1.08
2022-10-26T14:38:06.513Z,1.00
2022-10-26T14:40:36.770Z,0.80
2022-10-26T14:43:05.558Z,1.20
2022-10-26T14:45:53.070Z,0.90
2022-10-26T14:48:23.092Z,1.00
2022-10-26T14:51:11.214Z,1.20
2022-10-26T14:53:40.229Z,1.02
2022-10-26T14:56:35.211Z,0.90
2022-10-26T14:59:21.019Z,0.90
2022-10-26T15:01:52.229Z,1.08
2022-10-26T15:04:40.756Z,0.90
2022-10-26T15:07:14.205Z,0.80
2022-10-26T15:09:46.540Z,1.00
2022-10-26T15:12:30.317Z,0.80
2022-10-26T15:15:06.302Z,1.23
2022-10-26T15:17:37.575Z,1.48
2022-10-26T15:20:07.433Z,1.10
2022-10-26T15:22:34.670Z,1.43
2022-10-26T15:25:04.565Z,1.65
2022-10-26T15:27:31.660Z,1.30
2022-10-26T15:30:14.097Z,1.40
2022-10-26T15:32:41.251Z,1.30
2022-10-26T15:35:10.998Z,1.47
2022-10-26T15:37:38.764Z,1.48
2022-10-26T15:40:06.482Z,2.08
2022-10-26T15:42:38.095Z,1.73
2022-10-26T15:45:15.719Z,1.98
2022-10-26T15:47:43.278Z,1.77
2022-10-26T15:50:21.798Z,1.75
2022-10-26T15:52:49.647Z,1.50
2022-10-26T15:55:17.583Z,1.92
2022-10-26T15:57:44.709Z,1.95
2022-10-26T16:00:17.188Z,2.30
2022-10-26T16:02:45.241Z,1.88
2022-10-26T16:05:13.908Z,1.60
2022-10-26T16:07:43.193Z,1.40
2022-10-26T16:10:24.763Z,1.95
2022-10-26T16:12:52.471Z,1.80
2022-10-26T16:15:25.777Z,1.58
2022-10-26T16:17:53.167Z,1.77
2022-10-26T16:20:27.397Z,1.70
2022-10-26T16:22:55.059Z,1.50
2022-10-26T16:25:24.839Z,1.53
2022-10-26T16:27:54.675Z,2.10
2022-10-26T16:30:25.801Z,1.58
2022-10-26T16:32:55.301Z,1.60
2022-10-26T16:35:22.445Z,2.20
2022-10-26T16:37:49.725Z,1.70
2022-10-26T16:40:16.859Z,2.33
2022-10-26T16:42:44.701Z,2.00
2022-10-26T16:45:12.742Z,2.45
2022-10-26T16:47:40.147Z,1.90
2022-10-26T16:50:08.861Z,3.07
2022-10-26T16:52:36.998Z,2.20
2022-10-26T16:55:05.084Z,2.28
2022-10-26T16:57:32.297Z,2.40
2022-10-26T16:59:59.559Z,2.60
2022-10-26T17:02:26.743Z,2.60
2022-10-26T17:04:54.116Z,2.67
2022-10-26T17:07:21.163Z,3.20
2022-10-26T17:09:48.269Z,2.80
2022-10-26T17:12:15.466Z,2.75
2022-10-26T17:14:42.697Z,7.23
2022-10-26T17:17:09.807Z,7.53
2022-10-26T17:19:37.721Z,4.63
2022-10-26T17:22:07.858Z,5.00
2022-10-26T17:24:36.332Z,3.22
2022-10-26T17:27:03.497Z,3.60
2022-10-26T17:29:49.092Z,3.58
2022-10-26T17:32:19.100Z,3.92
2022-10-26T17:34:46.176Z,3.00
2022-10-26T17:37:13.222Z,3.50
2022-10-26T17:39:40.619Z,3.20
2022-10-26T17:42:07.690Z,2.90
2022-10-26T17:44:39.046Z,2.35
2022-10-26T17:47:06.160Z,2.85
2022-10-26T17:49:36.009Z,2.55
2022-10-26T17:52:04.676Z,3.00
2022-10-26T17:54:31.735Z,2.40
2022-10-26T17:56:58.928Z,3.17
2022-10-26T17:59:26.056Z,4.63
2022-10-26T18:01:54.164Z,5.70
2022-10-26T18:04:23.283Z,6.17
2022-10-26T18:06:50.704Z,4.45
2022-10-26T18:09:17.818Z,4.00
2022-10-26T18:11:45.235Z,3.38
2022-10-26T18:14:13.804Z,3.70
2022-10-26T18:16:40.887Z,3.50
2022-10-26T18:19:07.994Z,3.35
2022-10-26T18:21:39.104Z,3.50
2022-10-26T18:24:07.432Z,3.58
2022-10-26T18:26:34.797Z,3.00
2022-10-26T18:29:03.570Z,4.53
2022-10-26T18:31:31.874Z,4.63
2022-10-26T18:34:03.877Z,4.30
2022-10-26T18:36:31.454Z,4.03
2022-10-26T18:38:58.781Z,3.83
2022-10-26T18:41:26.202Z,4.00
2022-10-26T18:43:55.368Z,3.85
2022-10-26T18:46:25.233Z,3.80
2022-10-26T18:48:52.891Z,4.93
2022-10-26T18:51:22.057Z,3.53
2022-10-26T18:53:49.506Z,4.07
2022-10-26T18:56:19.187Z,3.40
2022-10-26T18:58:48.640Z,3.55
2022-10-26T19:01:20.018Z,4.47
2022-10-26T19:03:47.599Z,4.22
2022-10-26T19:06:19.814Z,4.40
2022-10-26T19:08:47.380Z,4.45
2022-10-26T19:11:16.449Z,4.60
2022-10-26T19:13:44.156Z,6.13
2022-10-26T19:16:40.264Z,6.32
2022-10-26T19:19:05.758Z,9.50
2022-10-26T19:21:33.201Z,8.75
2022-10-26T19:24:01.292Z,13.52
2022-10-26T19:26:33.444Z,17.95
2022-10-26T19:29:04.827Z,22.13
2022-10-26T19:31:35.734Z,9.47
2022-10-26T19:34:03.855Z,7.07
2022-10-26T19:36:31.251Z,6.63
2022-10-26T19:38:58.393Z,5.10
2022-10-26T19:41:26.879Z,3.53
2022-10-26T19:43:55.072Z,3.23
2022-10-26T19:46:27.281Z,3.60
2022-10-26T19:48:56.838Z,3.30
2022-10-26T19:51:25.166Z,2.80
2022-10-26T19:53:52.579Z,3.22
2022-10-26T19:56:20.637Z,2.73
2022-10-26T19:58:48.179Z,3.40
2022-10-26T20:01:15.693Z,3.38
2022-10-26T20:03:43.218Z,3.85
2022-10-26T20:06:13.009Z,2.95
2022-10-26T20:08:42.998Z,3.80
2022-10-26T20:11:14.626Z,4.50
2022-10-26T20:13:44.235Z,7.50
2022-10-26T20:16:12.097Z,5.95
2022-10-26T20:18:44.009Z,5.43
2022-10-26T20:21:15.051Z,5.17
2022-10-26T20:23:42.707Z,4.35
2022-10-26T20:26:18.329Z,4.05
2022-10-26T20:28:49.024Z,3.80
2022-10-26T20:31:16.182Z,4.03
2022-10-26T20:33:43.387Z,3.70
2022-10-26T20:36:10.546Z,3.63
2022-10-26T20:38:39.342Z,3.65
2022-10-26T20:41:10.404Z,3.83
2022-10-26T20:43:39.351Z,5.78
2022-10-26T20:46:30.871Z,4.47
2022-10-26T20:48:58.162Z,3.88
2022-10-26T20:51:47.619Z,4.00
2022-10-26T20:54:33.480Z,3.65
2022-10-26T20:57:02.386Z,3.65
2022-10-26T21:02:04.642Z,4.43
2022-10-26T21:04:31.809Z,3.95
2022-10-26T21:06:59.054Z,4.07
2022-10-26T21:09:27.610Z,4.35
2022-10-26T21:11:57.756Z,4.00
2022-10-26T21:14:24.938Z,3.95
2022-10-26T21:16:51.987Z,3.97
2022-10-26T21:19:19.582Z,3.90
2022-10-26T21:21:46.800Z,3.38
2022-10-26T21:24:13.947Z,4.30
2022-10-26T21:26:41.018Z,4.03
2022-10-26T21:29:08.058Z,4.57
2022-10-26T21:31:35.251Z,4.45
2022-10-26T21:34:02.773Z,3.90
2022-10-26T21:36:29.885Z,3.87
2022-10-26T21:38:57.013Z,3.55
2022-10-26T21:44:03.187Z,4.35
2022-10-26T21:46:38.314Z,4.20
2022-10-26T21:49:05.701Z,3.97
2022-10-26T21:51:33.165Z,4.30
2022-10-26T21:54:00.355Z,3.78
2022-10-26T21:56:27.497Z,4.22
2022-10-26T21:58:54.771Z,4.05
2022-10-26T22:01:22.934Z,3.73
2022-10-26T22:03:50.224Z,3.72
2022-10-26T22:08:47.368Z,3.47
2022-10-26T22:11:18.763Z,3.45
2022-10-26T22:13:46.667Z,3.87
2022-10-26T22:16:16.538Z,3.13
2022-10-26T22:18:45.453Z,3.38
2022-10-26T22:21:13.720Z,4.43
2022-10-26T22:23:42.078Z,2.80
2022-10-26T22:26:12.668Z,3.20
2022-10-26T22:28:42.726Z,3.45
2022-10-26T22:31:13.353Z,3.20
2022-10-26T22:33:41.192Z,3.28
2022-10-26T22:36:13.264Z,3.28
2022-10-26T22:38:41.020Z,3.87
2022-10-26T22:41:08.805Z,3.65
2022-10-26T22:43:35.923Z,3.20
2022-10-26T22:46:05.703Z,3.13
2022-10-26T22:48:33.577Z,3.10
2022-10-26T22:51:12.482Z,3.63
2022-10-26T22:53:39.578Z,3.40
2022-10-26T22:56:08.229Z,3.45
2022-10-26T22:58:35.943Z,3.50
2022-10-26T23:01:11.699Z,3.17
2022-10-26T23:03:39.722Z,3.00
2022-10-26T23:06:08.532Z,2.95
2022-10-26T23:08:35.661Z,3.15
2022-10-26T23:11:05.545Z,3.03
2022-10-26T23:13:32.999Z,3.15
2022-10-26T23:16:07.295Z,3.00
2022-10-26T23:18:35.197Z,3.15
2022-10-26T23:21:02.386Z,3.33
2022-10-26T23:23:29.903Z,3.00
2022-10-26T23:26:01.566Z,2.55
2022-10-26T23:28:28.670Z,3.40
2022-10-26T23:30:55.772Z,3.35
2022-10-26T23:33:22.886Z,2.67
2022-10-26T23:35:53.664Z,3.15
2022-10-26T23:38:20.751Z,2.92
2022-10-26T23:40:51.015Z,3.33
2022-10-26T23:43:18.290Z,2.97
2022-10-26T23:45:46.056Z,3.10
2022-10-26T23:48:13.884Z,3.22
2022-10-26T23:50:45.346Z,3.42
2022-10-26T23:53:13.845Z,3.07
2022-10-26T23:55:43.284Z,3.20
2022-10-26T23:58:11.227Z,3.08
